Ana Sayfa
METAR-TAF:

METAR-TAF

Havaalanları :

Udon Thani, Tayland

Enlem: 17-23N, Boylam: 102-48E, yükseklik: 177 m

Güncel hava durumu gözlemi

Rapor saat 09:00 UTC de 28 dakika önce yapıldı.
Rüzgar kuzey/kuzeydoğudan 5 kt, kuzey/kuzeybatı ve doğu arasında değişken
Sıcaklık 35°C
Nem 56%
Basınç 1003 hPa
Görüş mesafesi 10 km veya daha fazla
2000 ft yükseklikte az bulutlu, Kümülonimbus.

METAR: VTUD 200900Z 03005KT 340V080 9999 FEW020CB 35/25 Q1003 NOSIG

Saat: 16:28 (09:28 UTC)

Tahmin

Rapor saat 05:00 UTC de 4 saat ve 28 dakika önce yapıldı.
Ayın 20'si saat 06 UTC'den ayın 21'si saat 06 UTC'ye kadar geçerli Tahmin
Rüzgar güneybatıdan 6 kt
Görüş mesafesi 10 km veya daha fazla
3000 ft yükseklikte az bulutlu
10000 ft yükseklikte parçalı bulutlu

TAF: VTUD 200500Z 2006/2106 23006KT 9999 FEW030 SCT100

4.000'den fazla havaalanı için hava durumu gözlemleri ve tahminleri (METAR ve TAF raporları).

Kullanılabilir istasyonlar harita üzerinde sarı ve kırmızı noktalarla gösterilir.

İstasyonun adını görmek için fareyi noktanın üzerinde gezdirin.

Sonrasında hava gözlem ve tahminlerini görmek için tıklayın.

Haritayı değiştirmek için: yaklaştırmak için siyah artı işaretli yeşil düğmeye ve uzaklaştırmak için de eksi işaretli düğmeye hızla tıklayın; bitişik haritalar için yeşil okları kullanın.


METAR-TAF: